Time;durP1;ratioP1;P1;durP2;ratioP2;P2;SDS_P1;SDS_P2;PMS_P1;PMS_P2;Temp;Humidity;BMP_temperature;BMP_pressure;BME280_temperature;BME280_humidity;BME280_pressure;Samples;Min_cycle;Max_cycle;Signal;HPM_P1;HPM_P2
2021/11/15 00:01:30;;;;;;;22.80;10.88;;;5.90;99.90;;;;;;4994772;28;20034;-78
2021/11/15 00:03:55;;;;;;;24.15;10.50;;;5.90;99.90;;;;;;4990438;28;20062;-78
2021/11/15 00:06:21;;;;;;;21.27;10.65;;;5.90;99.90;;;;;;4990073;28;20072;-78
2021/11/15 00:08:47;;;;;;;23.80;10.38;;;5.90;99.90;;;;;;4991959;28;20080;-78
2021/11/15 00:11:13;;;;;;;21.92;9.93;;;5.90;99.90;;;;;;5010694;28;20120;-78
2021/11/15 00:13:39;;;;;;;20.85;9.07;;;5.90;99.90;;;;;;4991936;28;20034;-78
2021/11/15 00:16:05;;;;;;;21.75;10.55;;;5.90;99.90;;;;;;4991279;28;20547;-77
2021/11/15 00:18:31;;;;;;;26.27;10.55;;;5.90;99.90;;;;;;5005623;28;20048;-78
2021/11/15 00:20:57;;;;;;;21.55;9.35;;;5.90;99.90;;;;;;4991747;28;20120;-77
2021/11/15 00:23:23;;;;;;;22.60;9.15;;;5.90;99.90;;;;;;4990883;28;20038;-77
2021/11/15 00:25:49;;;;;;;24.38;10.45;;;5.80;99.90;;;;;;4995638;28;20033;-78
2021/11/15 00:28:14;;;;;;;19.52;9.68;;;5.80;99.90;;;;;;4990047;28;20029;-77
2021/11/15 00:30:40;;;;;;;22.00;10.23;;;5.80;99.90;;;;;;5009575;28;20042;-78
2021/11/15 00:33:06;;;;;;;21.58;10.60;;;5.90;99.90;;;;;;4993908;28;20067;-78
2021/11/15 00:35:32;;;;;;;23.52;10.45;;;5.90;99.90;;;;;;4992615;28;20117;-77
2021/11/15 00:37:58;;;;;;;23.60;9.35;;;5.80;99.90;;;;;;5006494;28;20734;-77
2021/11/15 00:40:24;;;;;;;24.20;10.20;;;5.80;99.90;;;;;;4995526;28;20388;-78
2021/11/15 00:42:50;;;;;;;21.02;10.38;;;5.80;99.90;;;;;;4993467;28;20524;-78
2021/11/15 00:45:16;;;;;;;21.20;9.70;;;5.80;99.90;;;;;;5006877;28;20122;-78
2021/11/15 00:47:51;;;;;;;23.05;10.93;;;5.70;99.90;;;;;;4991562;28;20052;-77
2021/11/15 00:50:20;;;;;;;21.95;9.90;;;5.70;99.90;;;;;;4990534;28;20042;-77
2021/11/15 00:52:46;;;;;;;22.27;11.00;;;5.70;99.90;;;;;;4992545;28;21358;-77
2021/11/15 00:55:12;;;;;;;20.90;10.48;;;5.60;99.90;;;;;;4996429;28;20058;-78
2021/11/15 00:57:38;;;;;;;25.23;10.90;;;5.60;99.90;;;;;;4990872;28;20053;-77
2021/11/15 01:00:08;;;;;;;24.75;10.18;;;5.60;99.90;;;;;;4988418;28;20248;-77
2021/11/15 01:02:34;;;;;;;20.70;9.88;;;5.50;99.90;;;;;;4990520;28;20411;-78
2021/11/15 01:05:00;;;;;;;24.27;10.45;;;5.50;99.90;;;;;;5005883;28;20412;-77
2021/11/15 01:07:26;;;;;;;20.67;9.52;;;5.60;99.90;;;;;;4990795;28;20038;-79
2021/11/15 01:09:52;;;;;;;22.98;9.80;;;5.60;99.90;;;;;;4997178;28;20030;-78
2021/11/15 01:12:17;;;;;;;24.20;9.10;;;5.50;99.90;;;;;;5009969;28;20030;-79
2021/11/15 01:14:43;;;;;;;17.42;7.60;;;5.50;99.90;;;;;;4992086;28;20128;-78
2021/11/15 01:17:09;;;;;;;15.48;8.10;;;5.60;99.90;;;;;;4990516;28;20045;-78
2021/11/15 01:19:37;;;;;;;19.63;8.52;;;5.60;99.90;;;;;;4995520;28;20037;-78
2021/11/15 01:22:03;;;;;;;18.17;8.27;;;5.50;99.90;;;;;;4991657;28;20125;-78
2021/11/15 01:24:30;;;;;;;17.48;7.60;;;5.50;99.90;;;;;;4992139;28;20030;-78
2021/11/15 01:26:55;;;;;;;15.75;7.82;;;5.50;99.90;;;;;;5013692;28;20027;-79
2021/11/15 01:29:24;;;;;;;17.73;8.50;;;5.50;99.90;;;;;;4991449;28;20751;-78
2021/11/15 01:31:49;;;;;;;19.05;7.55;;;5.50;99.90;;;;;;4993008;28;20052;-78
2021/11/15 01:34:15;;;;;;;18.85;8.55;;;5.50;99.90;;;;;;4994858;28;20026;-78
2021/11/15 01:36:41;;;;;;;19.63;8.27;;;5.50;99.90;;;;;;4996409;28;20037;-78
2021/11/15 01:39:06;;;;;;;16.98;8.73;;;5.50;99.90;;;;;;5001819;28;20041;-78
2021/11/15 01:41:32;;;;;;;18.27;8.60;;;5.40;99.90;;;;;;4995340;28;20246;-78
2021/11/15 01:43:59;;;;;;;17.73;9.15;;;5.40;99.90;;;;;;4992150;28;20053;-77
2021/11/15 01:46:24;;;;;;;23.55;10.77;;;5.40;99.90;;;;;;4991207;28;20088;-78
2021/11/15 01:48:50;;;;;;;20.23;8.55;;;5.40;99.90;;;;;;4994976;28;20026;-78
2021/11/15 01:51:16;;;;;;;19.15;8.18;;;5.40;99.90;;;;;;4994300;28;20055;-78
2021/11/15 01:53:43;;;;;;;19.10;8.75;;;5.40;99.90;;;;;;4994898;28;20044;-78
2021/11/15 01:56:09;;;;;;;22.70;9.00;;;5.40;99.90;;;;;;4997307;28;20772;-78
2021/11/15 01:58:34;;;;;;;18.95;9.25;;;5.40;99.90;;;;;;4993865;28;20459;-78
2021/11/15 02:01:00;;;;;;;17.63;8.80;;;5.50;99.90;;;;;;4993261;28;20034;-78
2021/11/15 02:03:30;;;;;;;20.20;8.43;;;5.50;99.90;;;;;;4995113;28;20089;-78
2021/11/15 02:05:57;;;;;;;22.70;9.20;;;5.50;99.90;;;;;;4994051;28;20085;-78
2021/11/15 02:08:23;;;;;;;24.70;10.23;;;5.50;99.90;;;;;;4998822;28;20026;-78
2021/11/15 02:10:49;;;;;;;22.75;10.63;;;5.50;99.90;;;;;;4995171;28;20060;-78
2021/11/15 02:13:17;;;;;;;21.70;9.55;;;5.50;99.90;;;;;;4993224;28;20040;-78
2021/11/15 02:15:43;;;;;;;;;;;5.50;99.90;;;;;;4993207;28;20038;-78
2021/11/15 02:18:09;;;;;;;24.40;9.13;;;5.40;99.90;;;;;;4995306;28;19920;-78
2021/11/15 02:20:49;;;;;;;19.98;8.55;;;5.50;99.90;;;;;;4995355;28;20077;-78
2021/11/15 02:23:17;;;;;;;19.73;9.10;;;5.40;99.90;;;;;;5011926;28;20400;-78
2021/11/15 02:25:44;;;;;;;23.38;10.75;;;5.50;99.90;;;;;;4996668;28;20125;-78
2021/11/15 02:28:10;;;;;;;25.17;11.13;;;5.50;99.90;;;;;;4994165;28;20034;-78
2021/11/15 02:30:36;;;;;;;21.33;9.90;;;5.50;99.90;;;;;;4994159;28;20281;-78
2021/11/15 02:33:02;;;;;;;26.85;10.55;;;5.50;99.90;;;;;;4995703;28;20437;-78
2021/11/15 02:35:28;;;;;;;26.38;10.13;;;5.50;99.90;;;;;;4992309;28;20033;-78
2021/11/15 02:37:54;;;;;;;22.40;9.63;;;5.50;99.90;;;;;;4995122;28;20582;-78
2021/11/15 02:40:25;;;;;;;25.65;10.52;;;5.50;99.90;;;;;;4994995;28;20125;-78
2021/11/15 02:42:51;;;;;;;20.15;10.35;;;5.50;99.90;;;;;;4997693;28;20045;-78
2021/11/15 02:45:19;;;;;;;20.05;8.73;;;5.50;99.90;;;;;;5010508;28;20057;-78
2021/11/15 02:47:45;;;;;;;21.53;9.70;;;5.50;99.90;;;;;;5010381;28;20029;-78
2021/11/15 02:50:17;;;;;;;22.50;10.18;;;5.50;99.90;;;;;;5010174;28;20030;-78
2021/11/15 02:52:44;;;;;;;22.63;9.98;;;5.50;99.90;;;;;;4994779;28;20125;-78
2021/11/15 02:55:10;;;;;;;20.90;9.70;;;5.40;99.90;;;;;;5014306;28;20026;-78
2021/11/15 02:57:37;;;;;;;21.02;9.63;;;5.40;99.90;;;;;;4997105;28;20030;-78
2021/11/15 03:00:05;;;;;;;19.08;9.57;;;5.50;99.90;;;;;;4996735;28;20030;-78
2021/11/15 03:02:31;;;;;;;20.75;9.25;;;5.40;99.90;;;;;;4990501;28;20079;-78
2021/11/15 03:04:57;;;;;;;27.17;10.70;;;5.40;99.90;;;;;;4993756;28;20050;-78
2021/11/15 03:07:22;;;;;;;23.55;9.43;;;5.40;99.90;;;;;;4992842;28;20037;-78
2021/11/15 03:09:48;;;;;;;24.95;10.23;;;5.40;99.90;;;;;;5008908;28;20439;-78
2021/11/15 03:12:14;;;;;;;23.35;10.82;;;5.40;99.90;;;;;;4993636;28;20034;-78
2021/11/15 03:14:40;;;;;;;23.40;10.43;;;5.30;99.90;;;;;;5010840;28;20409;-78
2021/11/15 03:17:05;;;;;;;20.10;9.27;;;5.30;99.90;;;;;;4993244;28;20038;-78
2021/11/15 03:19:31;;;;;;;21.05;9.50;;;5.30;99.90;;;;;;4997040;28;20439;-78
2021/11/15 03:21:57;;;;;;;19.90;8.05;;;5.40;99.90;;;;;;4991727;28;20404;-78
2021/11/15 03:24:22;;;;;;;23.27;9.40;;;5.30;99.90;;;;;;4992470;28;20030;-78
2021/11/15 03:26:48;;;;;;;18.55;8.85;;;5.30;99.90;;;;;;4995113;28;20034;-78
2021/11/15 03:29:14;;;;;;;19.88;9.05;;;5.30;99.90;;;;;;4990455;28;20033;-78
2021/11/15 03:31:40;;;;;;;20.08;9.27;;;5.40;99.90;;;;;;4993516;28;20038;-78
2021/11/15 03:34:11;;;;;;;19.50;8.90;;;5.30;99.90;;;;;;4993648;28;20500;-78
2021/11/15 03:36:38;;;;;;;21.98;10.27;;;5.30;99.90;;;;;;4992547;28;20022;-77
2021/11/15 03:39:06;;;;;;;24.17;10.80;;;5.30;99.90;;;;;;4992922;28;20144;-77
2021/11/15 03:41:35;;;;;;;19.20;9.80;;;5.30;99.90;;;;;;4992405;28;20018;-78
2021/11/15 03:44:02;;;;;;;20.27;8.32;;;5.30;99.90;;;;;;4992379;28;21315;-78
2021/11/15 03:46:28;;;;;;;21.10;9.95;;;5.30;99.90;;;;;;4992527;28;20034;-78
2021/11/15 03:48:54;;;;;;;21.38;10.05;;;5.30;99.90;;;;;;4993229;28;20678;-78
2021/11/15 03:51:20;;;;;;;17.77;9.30;;;5.30;99.90;;;;;;4992953;28;20038;-77
2021/11/15 03:53:46;;;;;;;23.63;9.25;;;5.20;99.90;;;;;;5015838;28;20113;-77
2021/11/15 03:56:15;;;;;;;26.08;10.23;;;5.30;99.90;;;;;;4996916;28;20034;-77
2021/11/15 03:58:44;;;;;;;20.48;9.63;;;5.20;99.90;;;;;;4995105;28;20042;-79
2021/11/15 04:01:11;;;;;;;16.58;9.85;;;5.20;99.90;;;;;;4993470;28;20053;-77
2021/11/15 04:03:39;;;;;;;21.80;9.88;;;5.20;99.90;;;;;;4993366;28;20033;-79
2021/11/15 04:06:25;;;;;;;22.75;9.75;;;5.20;99.90;;;;;;5013233;28;20034;-78
2021/11/15 04:08:54;;;;;;;17.00;8.63;;;5.20;99.90;;;;;;5021162;28;20034;-77
2021/11/15 04:11:21;;;;;;;21.95;9.35;;;5.20;99.90;;;;;;4999298;28;20492;-77
2021/11/15 04:13:50;;;;;;;22.55;9.82;;;5.20;99.90;;;;;;4993614;28;20034;-77
2021/11/15 04:16:17;;;;;;;16.83;8.93;;;5.20;99.90;;;;;;5009019;28;20034;-78
2021/11/15 04:18:47;;;;;;;20.25;9.10;;;5.10;99.90;;;;;;4992997;28;20029;-77
2021/11/15 04:21:14;;;;;;;19.08;9.00;;;5.20;99.90;;;;;;4991132;28;20038;-77
2021/11/15 04:23:40;;;;;;;23.13;9.05;;;5.10;99.90;;;;;;4991503;28;20191;-77
2021/11/15 04:26:07;;;;;;;21.08;9.55;;;5.10;99.90;;;;;;4992673;28;20549;-78
2021/11/15 04:28:34;;;;;;;26.90;10.73;;;5.10;99.90;;;;;;4998487;28;20030;-78
2021/11/15 04:30:59;;;;;;;16.20;7.90;;;5.20;99.90;;;;;;4991459;28;20674;-78
2021/11/15 04:33:25;;;;;;;19.88;9.30;;;5.10;99.90;;;;;;5009410;28;20045;-79
2021/11/15 04:35:52;;;;;;;23.25;9.98;;;5.10;99.90;;;;;;4996161;28;20026;-79
2021/11/15 04:38:18;;;;;;;23.52;10.05;;;5.10;99.90;;;;;;4996006;28;20052;-79
2021/11/15 04:40:44;;;;;;;21.85;9.05;;;5.10;99.90;;;;;;4993902;28;20488;-79
2021/11/15 04:43:10;;;;;;;24.38;9.57;;;5.10;99.90;;;;;;4990522;28;20118;-79
2021/11/15 04:45:37;;;;;;;19.77;9.70;;;5.10;99.90;;;;;;4995634;28;20572;-79
2021/11/15 04:48:03;;;;;;;20.08;8.38;;;5.10;99.90;;;;;;4994227;28;20018;-79
2021/11/15 04:50:29;;;;;;;19.67;8.07;;;5.10;99.90;;;;;;4994581;28;20033;-79
2021/11/15 04:52:55;;;;;;;17.80;8.48;;;5.10;99.90;;;;;;4993754;28;20069;-79
2021/11/15 04:55:22;;;;;;;24.00;10.45;;;5.10;99.90;;;;;;4993293;28;20065;-78
2021/11/15 04:57:49;;;;;;;18.08;8.63;;;5.10;99.90;;;;;;4993633;28;20044;-79
2021/11/15 05:00:18;;;;;;;18.90;8.63;;;5.10;99.90;;;;;;4991378;28;22061;-79
2021/11/15 05:02:48;;;;;;;20.58;7.88;;;5.10;99.90;;;;;;4992710;28;21615;-78
2021/11/15 05:05:17;;;;;;;19.70;9.35;;;5.10;99.90;;;;;;4996757;28;20050;-78
2021/11/15 05:07:44;;;;;;;25.02;10.50;;;5.10;99.90;;;;;;4993194;28;20034;-78
2021/11/15 05:10:10;;;;;;;23.02;9.18;;;5.00;99.90;;;;;;4999258;28;20026;-79
2021/11/15 05:12:37;;;;;;;27.13;9.48;;;5.00;99.90;;;;;;4998563;28;20033;-79
2021/11/15 05:15:08;;;;;;;18.80;8.48;;;5.00;99.90;;;;;;4995589;28;20428;-79
2021/11/15 05:17:34;;;;;;;19.70;8.43;;;5.00;99.90;;;;;;4998732;28;20159;-79
2021/11/15 05:20:00;;;;;;;29.80;10.65;;;5.00;99.90;;;;;;4996542;28;20058;-79
2021/11/15 05:22:25;;;;;;;22.95;10.25;;;5.00;99.90;;;;;;4997671;28;20053;-78
2021/11/15 05:24:51;;;;;;;23.10;9.45;;;5.00;99.90;;;;;;5014525;28;20037;-78
2021/11/15 05:27:17;;;;;;;19.30;8.95;;;5.00;99.90;;;;;;5013491;28;20117;-78
2021/11/15 05:29:43;;;;;;;20.88;8.25;;;5.00;99.90;;;;;;4997287;28;20033;-78
2021/11/15 05:32:09;;;;;;;20.08;8.60;;;5.00;99.90;;;;;;4995451;28;20033;-79
2021/11/15 05:34:35;;;;;;;22.23;9.07;;;5.00;99.90;;;;;;4996412;28;20030;-79
2021/11/15 05:37:00;;;;;;;23.83;8.90;;;5.00;99.90;;;;;;4999715;28;20041;-78
2021/11/15 05:39:26;;;;;;;19.23;9.60;;;5.00;99.90;;;;;;4996058;28;20030;-79
2021/11/15 05:41:52;;;;;;;20.77;9.13;;;5.00;99.90;;;;;;4996884;28;20478;-78
2021/11/15 05:44:18;;;;;;;20.13;9.32;;;5.00;99.90;;;;;;5013194;28;20072;-79
2021/11/15 05:46:44;;;;;;;18.70;8.93;;;5.00;99.90;;;;;;5011352;28;20049;-79
2021/11/15 05:49:10;;;;;;;21.85;9.65;;;5.00;99.90;;;;;;4996440;28;20072;-78
2021/11/15 05:51:36;;;;;;;20.88;8.32;;;5.00;99.90;;;;;;4996016;28;20570;-78
2021/11/15 05:54:02;;;;;;;21.13;9.40;;;5.00;99.90;;;;;;5009810;28;20036;-78
2021/11/15 05:56:28;;;;;;;22.00;8.73;;;5.00;99.90;;;;;;5001684;28;20458;-78
2021/11/15 05:58:54;;;;;;;22.02;8.77;;;5.00;99.90;;;;;;4996141;28;20039;-79
2021/11/15 06:01:19;;;;;;;24.27;10.57;;;5.00;99.90;;;;;;4996867;28;20031;-78
2021/11/15 06:03:45;;;;;;;25.40;10.27;;;5.00;99.90;;;;;;4995409;28;20129;-79
2021/11/15 06:06:11;;;;;;;23.15;9.32;;;5.00;99.90;;;;;;4995186;28;20034;-79
2021/11/15 06:08:37;;;;;;;27.55;10.18;;;5.00;99.90;;;;;;4997461;28;20403;-79
2021/11/15 06:11:04;;;;;;;22.08;9.25;;;5.10;99.90;;;;;;4999897;28;22628;-79
2021/11/15 06:13:29;;;;;;;18.90;9.07;;;5.00;99.90;;;;;;4998012;28;20057;-80
2021/11/15 06:15:56;;;;;;;25.10;9.88;;;5.00;99.90;;;;;;4999625;28;20124;-79
2021/11/15 06:18:21;;;;;;;23.85;9.88;;;5.10;99.90;;;;;;4999009;28;20092;-79
2021/11/15 06:20:47;;;;;;;21.10;8.40;;;5.10;99.90;;;;;;4998913;28;20046;-79
2021/11/15 06:23:13;;;;;;;31.00;9.85;;;5.00;99.90;;;;;;4996429;28;20081;-79
2021/11/15 06:25:39;;;;;;;23.55;10.07;;;5.00;99.90;;;;;;4995508;28;20041;-79
2021/11/15 06:28:06;;;;;;;24.02;8.98;;;5.00;99.90;;;;;;5017840;28;20029;-79
2021/11/15 06:30:31;;;;;;;24.05;9.68;;;5.00;99.90;;;;;;5001866;28;20036;-80
2021/11/15 06:32:58;;;;;;;28.95;10.73;;;5.10;99.90;;;;;;4995926;28;20034;-79
2021/11/15 06:35:27;;;;;;;21.67;9.07;;;5.10;99.90;;;;;;4993995;28;20053;-79
2021/11/15 06:37:53;;;;;;;24.98;10.35;;;5.00;99.90;;;;;;4995789;28;20030;-78
2021/11/15 06:40:19;;;;;;;28.15;11.23;;;5.10;99.90;;;;;;4997996;28;20115;-79
2021/11/15 06:42:45;;;;;;;24.45;9.27;;;5.10;99.90;;;;;;5012280;28;20034;-79
2021/11/15 06:45:12;;;;;;;22.10;9.77;;;5.10;99.90;;;;;;4994037;28;20028;-79
2021/11/15 06:47:38;;;;;;;27.33;10.18;;;5.10;99.90;;;;;;4996452;28;20408;-79
2021/11/15 06:50:07;;;;;;;23.23;9.52;;;5.00;99.90;;;;;;4998128;28;20050;-79
2021/11/15 06:52:33;;;;;;;25.15;10.00;;;5.10;99.90;;;;;;5001644;28;20027;-79
2021/11/15 06:54:59;;;;;;;27.20;10.43;;;5.10;99.90;;;;;;5015300;28;20077;-79
2021/11/15 06:57:26;;;;;;;27.95;10.63;;;5.00;99.90;;;;;;4994629;28;20030;-79
2021/11/15 06:59:53;;;;;;;29.27;10.93;;;5.10;99.90;;;;;;4999271;28;20142;-79
2021/11/15 07:02:19;;;;;;;22.25;10.25;;;5.10;99.90;;;;;;5008896;28;20141;-79
2021/11/15 07:04:44;;;;;;;28.25;10.07;;;5.10;99.90;;;;;;4995313;28;20056;-78
2021/11/15 07:07:10;;;;;;;27.75;10.48;;;5.10;99.90;;;;;;4999079;28;20030;-79
2021/11/15 07:09:36;;;;;;;26.88;10.60;;;5.00;99.90;;;;;;5020795;28;20026;-79
2021/11/15 07:12:02;;;;;;;25.70;10.65;;;5.00;99.90;;;;;;5009732;28;20026;-79
2021/11/15 07:14:28;;;;;;;24.27;9.55;;;5.10;99.90;;;;;;4994309;28;20153;-80
2021/11/15 07:16:54;;;;;;;30.50;12.18;;;5.00;99.90;;;;;;4993856;28;20039;-78
2021/11/15 07:19:21;;;;;;;33.97;11.75;;;5.10;99.90;;;;;;4995885;28;20408;-78
2021/11/15 07:21:46;;;;;;;29.90;11.07;;;5.10;99.90;;;;;;4994326;28;20037;-79
2021/11/15 07:24:12;;;;;;;22.85;9.93;;;5.10;99.90;;;;;;4995321;28;20025;-77
2021/11/15 07:26:38;;;;;;;29.08;11.93;;;5.10;99.90;;;;;;5000034;28;20026;-78
2021/11/15 07:29:03;;;;;;;28.05;11.18;;;5.10;99.90;;;;;;5001326;28;20038;-78
2021/11/15 07:31:29;;;;;;;25.65;11.85;;;5.10;99.90;;;;;;4995899;28;21201;-77
2021/11/15 07:33:56;;;;;;;28.23;12.18;;;5.10;99.90;;;;;;5001248;28;20065;-78
2021/11/15 07:36:22;;;;;;;27.48;11.50;;;5.00;99.90;;;;;;5000165;28;20018;-77
2021/11/15 07:38:48;;;;;;;26.77;11.63;;;5.00;99.90;;;;;;5000769;28;20091;-78
2021/11/15 07:41:14;;;;;;;31.23;11.35;;;5.00;99.90;;;;;;4998147;28;20451;-77
2021/11/15 07:43:40;;;;;;;28.15;11.95;;;5.00;99.90;;;;;;4999842;28;20504;-78
2021/11/15 07:46:06;;;;;;;28.98;11.02;;;5.00;99.90;;;;;;4999924;28;20024;-78
2021/11/15 07:48:32;;;;;;;30.73;11.35;;;5.00;99.90;;;;;;4997447;28;20397;-78
2021/11/15 07:50:59;;;;;;;28.27;11.27;;;4.90;99.90;;;;;;4998067;28;20105;-77
2021/11/15 07:53:26;;;;;;;32.92;12.60;;;5.00;99.90;;;;;;4994032;28;20399;-78
2021/11/15 07:55:52;;;;;;;26.15;11.15;;;4.90;99.90;;;;;;5008705;28;20373;-77
2021/11/15 07:58:18;;;;;;;29.60;12.30;;;5.00;99.90;;;;;;4998281;28;20026;-77
2021/11/15 08:00:44;;;;;;;29.52;10.82;;;5.00;99.90;;;;;;5000816;28;20109;-78
2021/11/15 08:03:09;;;;;;;25.35;10.82;;;5.00;99.90;;;;;;4992674;28;20085;-78
2021/11/15 08:05:35;;;;;;;27.13;12.55;;;5.00;99.90;;;;;;4999689;28;20123;-78
2021/11/15 08:08:02;;;;;;;27.08;10.98;;;5.00;99.90;;;;;;4992464;28;20041;-78
2021/11/15 08:10:28;;;;;;;31.58;11.85;;;5.00;99.90;;;;;;4991921;28;20017;-78
2021/11/15 08:12:56;;;;;;;29.13;11.18;;;4.90;99.90;;;;;;4992981;28;20084;-78
2021/11/15 08:15:24;;;;;;;28.08;11.52;;;4.90;99.90;;;;;;4994297;28;20032;-78
2021/11/15 08:17:52;;;;;;;29.98;11.85;;;4.90;99.90;;;;;;4990952;28;20031;-77
2021/11/15 08:20:30;;;;;;;23.05;11.45;;;5.00;99.90;;;;;;5000002;28;20030;-77
2021/11/15 08:23:02;;;;;;;32.50;14.88;;;5.00;99.90;;;;;;4994195;28;20475;-77
2021/11/15 08:26:20;;;;;;;31.38;11.63;;;5.00;99.90;;;;;;4998916;28;20026;-78
2021/11/15 08:28:46;;;;;;;36.03;12.85;;;5.00;99.90;;;;;;5005598;28;20034;-78
2021/11/15 08:31:12;;;;;;;29.60;12.77;;;5.00;99.90;;;;;;4995317;28;20041;-77
2021/11/15 08:37:01;;;;;;;29.45;11.68;;;5.00;99.90;;;;;;5003385;28;20130;-78
2021/11/15 08:39:27;;;;;;;28.90;10.90;;;5.00;99.90;;;;;;5005727;28;20038;-77
2021/11/15 08:42:03;;;;;;;32.90;12.13;;;5.00;99.90;;;;;;4997647;28;20048;-77
2021/11/15 08:44:30;;;;;;;28.88;12.32;;;5.00;99.90;;;;;;5000172;28;20668;-77
2021/11/15 08:46:57;;;;;;;28.73;12.18;;;5.00;99.90;;;;;;5000370;28;20037;-78
2021/11/15 08:49:29;;;;;;;34.58;12.95;;;4.90;99.90;;;;;;5000651;28;20112;-78
2021/11/15 08:51:59;;;;;;;27.00;10.90;;;4.90;99.90;;;;;;5019662;28;20120;-78
2021/11/15 08:54:25;;;;;;;26.80;11.32;;;4.90;99.90;;;;;;5005014;28;20036;-78
2021/11/15 08:56:57;;;;;;;28.10;11.85;;;4.90;99.90;;;;;;4998857;28;20023;-79
2021/11/15 08:59:23;;;;;;;24.65;10.85;;;4.90;99.90;;;;;;5002749;28;20022;-79
2021/11/15 09:01:49;;;;;;;25.40;11.63;;;5.00;99.90;;;;;;5003393;28;20026;-78
2021/11/15 09:04:16;;;;;;;23.65;11.07;;;5.00;99.90;;;;;;4997229;28;20046;-79
2021/11/15 09:06:43;;;;;;;32.95;11.20;;;5.00;99.90;;;;;;5004086;28;20036;-78
2021/11/15 09:09:14;;;;;;;28.35;11.50;;;5.00;99.90;;;;;;5003482;28;20582;-78
2021/11/15 09:11:45;;;;;;;25.67;9.98;;;5.00;99.90;;;;;;5001735;28;20030;-78
2021/11/15 09:14:12;;;;;;;24.63;11.38;;;5.00;99.90;;;;;;5004543;28;20113;-78
2021/11/15 09:16:38;;;;;;;28.63;11.80;;;5.00;99.90;;;;;;5001096;28;20105;-78
2021/11/15 09:19:03;;;;;;;28.35;11.75;;;5.00;99.90;;;;;;5003464;28;20030;-79
2021/11/15 09:21:29;;;;;;;28.38;11.15;;;5.00;99.90;;;;;;5006214;28;20030;-78
2021/11/15 09:23:54;;;;;;;27.35;11.20;;;5.00;99.90;;;;;;5005761;28;20060;-78
2021/11/15 09:26:26;;;;;;;28.00;11.55;;;5.00;99.90;;;;;;5002569;28;20168;-78
2021/11/15 09:28:52;;;;;;;27.05;10.63;;;5.00;99.90;;;;;;4999532;28;20021;-78
2021/11/15 09:31:17;;;;;;;27.77;10.52;;;5.00;99.90;;;;;;4994303;28;20577;-77
2021/11/15 09:33:43;;;;;;;29.27;11.90;;;5.00;99.90;;;;;;4996977;28;20049;-78
2021/11/15 09:36:09;;;;;;;31.67;12.85;;;5.00;99.90;;;;;;5001014;28;20456;-78
2021/11/15 09:38:36;;;;;;;24.33;10.65;;;5.00;99.90;;;;;;5003247;28;20034;-77
2021/11/15 09:41:04;;;;;;;28.20;11.25;;;5.00;99.90;;;;;;4999978;28;20169;-77
2021/11/15 09:43:34;;;;;;;28.13;11.70;;;5.00;99.90;;;;;;5003089;28;20544;-77
2021/11/15 09:46:12;;;;;;;28.95;12.35;;;5.00;99.90;;;;;;5007275;28;20101;-78
2021/11/15 09:48:41;;;;;;;26.80;11.40;;;5.00;99.90;;;;;;5002014;28;20096;-78
2021/11/15 09:51:08;;;;;;;28.65;12.27;;;5.00;99.90;;;;;;5006609;28;20034;-78
2021/11/15 09:53:35;;;;;;;25.05;10.68;;;5.10;99.90;;;;;;4998378;28;20037;-77
2021/11/15 09:56:02;;;;;;;30.08;11.82;;;5.10;99.90;;;;;;4997479;28;20749;-77
2021/11/15 09:58:29;;;;;;;28.08;12.23;;;5.10;99.90;;;;;;4998091;28;20739;-77
2021/11/15 10:00:55;;;;;;;32.67;12.70;;;5.10;99.90;;;;;;4997572;28;20038;-78
2021/11/15 10:03:21;;;;;;;18.50;9.20;;;5.10;99.90;;;;;;4999390;28;20049;-77
2021/11/15 10:05:48;;;;;;;30.95;11.05;;;5.10;99.90;;;;;;4998905;28;20045;-78
2021/11/15 10:08:13;;;;;;;28.30;11.73;;;5.10;99.90;;;;;;5024015;28;20030;-77
2021/11/15 10:10:44;;;;;;;32.03;12.98;;;5.10;99.90;;;;;;5004302;28;20021;-78
2021/11/15 10:13:19;;;;;;;28.63;12.77;;;5.20;99.90;;;;;;5007049;28;20026;-77
2021/11/15 10:15:52;;;;;;;28.42;11.52;;;5.10;99.90;;;;;;5008537;28;20030;-78
2021/11/15 10:18:42;;;;;;;31.52;11.57;;;5.20;99.90;;;;;;5010442;28;20037;-78
2021/11/15 10:21:41;;;;;;;28.63;11.88;;;5.20;99.90;;;;;;5004736;28;20029;-78
2021/11/15 10:24:08;;;;;;;28.05;11.43;;;5.20;99.90;;;;;;4999043;28;20055;-78
2021/11/15 10:26:57;;;;;;;28.73;11.32;;;5.20;99.90;;;;;;5006699;28;20065;-78
2021/11/15 10:29:25;;;;;;;;;;;5.20;99.90;;;;;;4998996;28;20022;-77
2021/11/15 10:31:54;;;;;;;26.08;11.93;;;5.20;99.90;;;;;;5009775;28;19913;-78
2021/11/15 10:34:51;;;;;;;24.42;11.70;;;5.20;99.90;;;;;;5004976;28;20033;-78
2021/11/15 10:37:27;;;;;;;28.08;11.95;;;5.30;99.90;;;;;;5004373;28;20129;-77
2021/11/15 10:40:00;;;;;;;22.60;11.02;;;5.30;99.90;;;;;;5000395;28;20025;-77
2021/11/15 10:42:27;;;;;;;31.60;12.68;;;5.30;99.90;;;;;;5004934;28;20049;-78
2021/11/15 10:44:59;;;;;;;29.40;12.85;;;5.40;99.90;;;;;;4998580;28;20046;-78
2021/11/15 10:47:37;;;;;;;33.17;13.40;;;5.30;99.90;;;;;;4994799;28;20163;-78
2021/11/15 10:50:09;;;;;;;31.90;12.70;;;5.30;99.90;;;;;;4996777;28;20508;-78
2021/11/15 10:52:37;;;;;;;35.28;13.07;;;5.30;99.90;;;;;;4998309;28;20034;-78
2021/11/15 10:55:06;;;;;;;33.60;12.85;;;5.30;99.90;;;;;;4993805;28;20539;-78
2021/11/15 10:57:37;;;;;;;33.40;13.80;;;5.30;99.90;;;;;;4995436;28;20117;-78
2021/11/15 11:00:10;;;;;;;35.97;14.00;;;5.30;99.90;;;;;;4995741;28;20030;-78
2021/11/15 11:02:38;;;;;;;37.15;15.30;;;5.20;99.90;;;;;;4997131;28;20042;-78
2021/11/15 11:05:13;;;;;;;33.70;13.27;;;5.20;99.90;;;;;;5008162;28;20524;-78
2021/11/15 11:07:42;;;;;;;43.17;15.90;;;5.20;99.90;;;;;;5009711;28;20034;-78
2021/11/15 11:10:10;;;;;;;36.20;14.30;;;5.20;99.90;;;;;;4996834;28;20030;-78
2021/11/15 11:12:40;;;;;;;35.00;14.82;;;5.20;99.90;;;;;;4998205;28;20183;-78
2021/11/15 11:15:32;;;;;;;36.78;13.93;;;5.20;99.90;;;;;;5000696;28;20523;-77
2021/11/15 11:18:00;;;;;;;34.38;13.60;;;5.10;99.90;;;;;;4996935;28;20455;-78
2021/11/15 11:25:46;;;;;;;33.10;13.88;;;5.10;99.90;;;;;;4994446;28;20030;-78
2021/11/15 11:28:33;;;;;;;38.92;15.38;;;5.10;99.90;;;;;;4997861;28;20056;-79
2021/11/15 11:31:00;;;;;;;29.17;13.15;;;5.10;99.90;;;;;;4997677;28;20053;-78
2021/11/15 11:33:29;;;;;;;36.30;13.38;;;5.20;99.90;;;;;;5001901;28;20056;-78
2021/11/15 11:35:55;;;;;;;;;;;5.20;99.90;;;;;;5003967;28;20040;-78
2021/11/15 11:38:21;;;;;;;33.05;12.73;;;5.10;99.90;;;;;;5004624;28;19910;-78
2021/11/15 11:40:47;;;;;;;30.67;12.85;;;5.10;99.90;;;;;;5000746;28;20168;-78
2021/11/15 11:43:16;;;;;;;28.15;12.05;;;5.10;99.90;;;;;;4999150;28;20108;-78
2021/11/15 11:45:45;;;;;;;29.75;12.82;;;5.10;99.90;;;;;;4996470;28;20025;-78
2021/11/15 11:48:12;;;;;;;24.92;11.07;;;5.20;99.90;;;;;;5004210;28;20022;-78
2021/11/15 11:50:41;;;;;;;32.65;13.50;;;5.10;99.90;;;;;;5012201;28;20018;-78
2021/11/15 11:53:09;;;;;;;24.90;11.27;;;5.10;99.90;;;;;;5004714;28;20167;-78
2021/11/15 11:55:38;;;;;;;27.13;11.30;;;5.10;99.90;;;;;;5010206;28;20524;-78
2021/11/15 11:58:22;;;;;;;27.98;12.15;;;5.10;99.90;;;;;;5004570;28;20049;-78
2021/11/15 12:00:52;;;;;;;23.13;11.93;;;5.10;99.90;;;;;;5003513;28;20042;-78
2021/11/15 12:03:18;;;;;;;26.38;11.20;;;5.10;99.90;;;;;;5026963;28;20089;-78
2021/11/15 12:05:43;;;;;;;28.75;14.55;;;5.10;99.90;;;;;;5013585;28;20519;-78
2021/11/15 12:08:09;;;;;;;32.90;11.52;;;5.10;99.90;;;;;;5003470;28;20022;-78
2021/11/15 12:11:04;;;;;;;24.23;11.10;;;5.10;99.90;;;;;;5002170;28;20022;-78
2021/11/15 12:13:31;;;;;;;22.80;9.65;;;5.10;99.90;;;;;;4998974;28;20568;-78
2021/11/15 12:16:02;;;;;;;24.10;10.05;;;5.10;99.90;;;;;;4992954;28;20030;-78
2021/11/15 12:18:32;;;;;;;24.58;10.07;;;5.10;99.90;;;;;;4998407;28;20504;-77
2021/11/15 12:21:04;;;;;;;20.55;9.13;;;5.10;99.90;;;;;;4996468;28;20072;-78
2021/11/15 12:23:50;;;;;;;31.73;13.38;;;5.10;99.90;;;;;;4991488;28;21172;-77
2021/11/15 12:26:22;;;;;;;31.83;12.50;;;5.10;99.90;;;;;;4993707;28;20481;-78
2021/11/15 12:28:49;;;;;;;33.75;12.70;;;5.10;99.90;;;;;;5000106;28;20073;-78
2021/11/15 12:31:35;;;;;;;25.85;11.52;;;5.20;99.90;;;;;;5003330;28;20042;-78
2021/11/15 12:34:04;;;;;;;26.08;11.45;;;5.20;99.90;;;;;;4994939;28;20164;-78
2021/11/15 12:36:40;;;;;;;28.95;11.98;;;5.20;99.90;;;;;;5005521;28;20472;-78
2021/11/15 12:39:12;;;;;;;27.77;12.02;;;5.10;99.90;;;;;;4998033;28;20089;-77
2021/11/15 12:41:42;;;;;;;27.13;10.63;;;5.20;99.90;;;;;;4998054;28;20500;-78
2021/11/15 12:44:09;;;;;;;31.70;11.55;;;5.10;99.90;;;;;;4993551;28;20026;-78
2021/11/15 12:46:59;;;;;;;27.00;11.60;;;5.20;99.90;;;;;;4998200;28;20117;-78
2021/11/15 12:49:54;;;;;;;26.67;11.48;;;5.20;99.90;;;;;;4999672;28;21863;-77
2021/11/15 12:52:26;;;;;;;33.28;12.48;;;5.20;99.90;;;;;;5007882;28;20535;-78
2021/11/15 12:55:06;;;;;;;30.15;12.50;;;5.20;99.90;;;;;;5005880;28;20049;-78